sensor_id;sensor_type;location;lat;lon;timestamp;pressure;altitude;pressure_sealevel;temperature;humidity
73063;BME280;61230;46.328;19.972;2023-05-27T00:00:26;100676.28;;;16.33;100.00
73063;BME280;61230;46.328;19.972;2023-05-27T00:02:54;100711.56;;;16.58;100.00
73063;BME280;61230;46.328;19.972;2023-05-27T00:05:22;100710.91;;;16.56;100.00
73063;BME280;61230;46.328;19.972;2023-05-27T00:07:50;100701.13;;;16.56;100.00
73063;BME280;61230;46.328;19.972;2023-05-27T00:10:18;100708.25;;;16.56;100.00
73063;BME280;61230;46.328;19.972;2023-05-27T00:12:45;100694.13;;;16.55;100.00
73063;BME280;61230;46.328;19.972;2023-05-27T00:15:13;100700.28;;;16.56;100.00
73063;BME280;61230;46.328;19.972;2023-05-27T00:17:41;100699.66;;;16.54;100.00
73063;BME280;61230;46.328;19.972;2023-05-27T00:20:10;100697.31;;;16.51;100.00
73063;BME280;61230;46.328;19.972;2023-05-27T00:22:40;100698.13;;;16.51;100.00
73063;BME280;61230;46.328;19.972;2023-05-27T00:25:09;100697.09;;;16.52;100.00
73063;BME280;61230;46.328;19.972;2023-05-27T00:27:37;100694.63;;;16.51;100.00
73063;BME280;61230;46.328;19.972;2023-05-27T00:30:05;100693.81;;;16.50;100.00
73063;BME280;61230;46.328;19.972;2023-05-27T00:32:33;100688.31;;;16.52;100.00
73063;BME280;61230;46.328;19.972;2023-05-27T00:35:00;100694.63;;;16.51;100.00
73063;BME280;61230;46.328;19.972;2023-05-27T00:37:28;100693.63;;;16.52;100.00
73063;BME280;61230;46.328;19.972;2023-05-27T00:39:56;100695.47;;;16.51;100.00
73063;BME280;61230;46.328;19.972;2023-05-27T00:42:23;100687.66;;;16.50;100.00
73063;BME280;61230;46.328;19.972;2023-05-27T00:44:51;100694.16;;;16.47;100.00
73063;BME280;61230;46.328;19.972;2023-05-27T00:47:19;100692.47;;;16.46;100.00
73063;BME280;61230;46.328;19.972;2023-05-27T00:49:48;100657.87;;;16.24;100.00
73063;BME280;61230;46.328;19.972;2023-05-27T00:52:16;100700.78;;;16.43;100.00
73063;BME280;61230;46.328;19.972;2023-05-27T00:54:43;100646.28;;;16.17;100.00
73063;BME280;61230;46.328;19.972;2023-05-27T00:57:11;100696.31;;;16.44;100.00
73063;BME280;61230;46.328;19.972;2023-05-27T00:59:39;100703.28;;;16.45;100.00
73063;BME280;61230;46.328;19.972;2023-05-27T01:02:07;100666.69;;;16.16;100.00
73063;BME280;61230;46.328;19.972;2023-05-27T01:04:34;100699.84;;;16.36;100.00
73063;BME280;61230;46.328;19.972;2023-05-27T01:07:29;100707.47;;;16.39;100.00
73063;BME280;61230;46.328;19.972;2023-05-27T01:10:10;100698.50;;;16.40;100.00
73063;BME280;61230;46.328;19.972;2023-05-27T01:13:03;100695.84;;;16.40;100.00
73063;BME280;61230;46.328;19.972;2023-05-27T01:15:34;100696.53;;;16.34;100.00
73063;BME280;61230;46.328;19.972;2023-05-27T01:18:03;100696.69;;;16.33;100.00
73063;BME280;61230;46.328;19.972;2023-05-27T01:20:32;100693.91;;;16.18;100.00
73063;BME280;61230;46.328;19.972;2023-05-27T01:23:01;100697.56;;;16.25;100.00
73063;BME280;61230;46.328;19.972;2023-05-27T01:25:29;100649.53;;;15.88;100.00
73063;BME280;61230;46.328;19.972;2023-05-27T01:27:56;100696.09;;;16.15;100.00
73063;BME280;61230;46.328;19.972;2023-05-27T01:30:24;100688.81;;;16.08;100.00
73063;BME280;61230;46.328;19.972;2023-05-27T01:33:13;100692.97;;;16.03;100.00
73063;BME280;61230;46.328;19.972;2023-05-27T01:35:47;100693.09;;;16.09;100.00
73063;BME280;61230;46.328;19.972;2023-05-27T01:38:20;100648.38;;;15.82;100.00
73063;BME280;61230;46.328;19.972;2023-05-27T01:40:49;100688.94;;;16.07;100.00
73063;BME280;61230;46.328;19.972;2023-05-27T01:43:18;100693.12;;;16.01;100.00
73063;BME280;61230;46.328;19.972;2023-05-27T01:45:46;100647.06;;;15.70;100.00
73063;BME280;61230;46.328;19.972;2023-05-27T01:48:14;100693.81;;;15.87;100.00
73063;BME280;61230;46.328;19.972;2023-05-27T01:50:42;100699.62;;;15.83;100.00
73063;BME280;61230;46.328;19.972;2023-05-27T01:53:11;100690.97;;;15.81;100.00
73063;BME280;61230;46.328;19.972;2023-05-27T01:55:39;100690.66;;;15.76;100.00
73063;BME280;61230;46.328;19.972;2023-05-27T01:58:07;100689.50;;;15.70;100.00
73063;BME280;61230;46.328;19.972;2023-05-27T02:00:34;100688.66;;;15.70;100.00
73063;BME280;61230;46.328;19.972;2023-05-27T02:03:02;100687.03;;;15.61;100.00
73063;BME280;61230;46.328;19.972;2023-05-27T02:05:30;100690.34;;;15.63;100.00
73063;BME280;61230;46.328;19.972;2023-05-27T02:07:58;100694.16;;;15.60;100.00
73063;BME280;61230;46.328;19.972;2023-05-27T02:10:26;100695.00;;;15.61;100.00
73063;BME280;61230;46.328;19.972;2023-05-27T02:12:53;100696.81;;;15.60;100.00
73063;BME280;61230;46.328;19.972;2023-05-27T02:15:21;100691.34;;;15.62;100.00
73063;BME280;61230;46.328;19.972;2023-05-27T02:17:52;100696.31;;;15.65;100.00
73063;BME280;61230;46.328;19.972;2023-05-27T02:20:23;100690.66;;;15.68;100.00
73063;BME280;61230;46.328;19.972;2023-05-27T02:22:52;100695.00;;;15.69;100.00
73063;BME280;61230;46.328;19.972;2023-05-27T02:25:19;100690.19;;;15.72;100.00
73063;BME280;61230;46.328;19.972;2023-05-27T02:27:47;100692.97;;;15.79;100.00
73063;BME280;61230;46.328;19.972;2023-05-27T02:30:16;100693.31;;;15.84;100.00
73063;BME280;61230;46.328;19.972;2023-05-27T02:32:44;100693.31;;;15.92;100.00
73063;BME280;61230;46.328;19.972;2023-05-27T02:35:13;100699.09;;;15.95;100.00
73063;BME280;61230;46.328;19.972;2023-05-27T02:37:42;100703.91;;;16.00;100.00
73063;BME280;61230;46.328;19.972;2023-05-27T02:40:09;100702.75;;;16.02;100.00
73063;BME280;61230;46.328;19.972;2023-05-27T02:42:38;100704.56;;;16.02;100.00
73063;BME280;61230;46.328;19.972;2023-05-27T02:45:06;100701.25;;;16.08;100.00
73063;BME280;61230;46.328;19.972;2023-05-27T02:47:35;100707.38;;;16.08;100.00
73063;BME280;61230;46.328;19.972;2023-05-27T02:50:02;100708.69;;;16.12;100.00
73063;BME280;61230;46.328;19.972;2023-05-27T02:52:30;100703.38;;;16.12;100.00
73063;BME280;61230;46.328;19.972;2023-05-27T02:54:58;100710.00;;;16.17;100.00
73063;BME280;61230;46.328;19.972;2023-05-27T02:57:26;100698.56;;;16.16;100.00
73063;BME280;61230;46.328;19.972;2023-05-27T02:59:54;100661.47;;;15.92;100.00
73063;BME280;61230;46.328;19.972;2023-05-27T03:02:22;100695.56;;;16.19;100.00
73063;BME280;61230;46.328;19.972;2023-05-27T03:04:49;100700.69;;;16.21;100.00
73063;BME280;61230;46.328;19.972;2023-05-27T03:07:17;100704.38;;;16.20;100.00
73063;BME280;61230;46.328;19.972;2023-05-27T03:09:45;100707.84;;;16.20;100.00
73063;BME280;61230;46.328;19.972;2023-05-27T03:12:12;100707.84;;;16.20;100.00
73063;BME280;61230;46.328;19.972;2023-05-27T03:14:40;100703.84;;;16.24;100.00
73063;BME280;61230;46.328;19.972;2023-05-27T03:17:08;100711.47;;;16.27;100.00
73063;BME280;61230;46.328;19.972;2023-05-27T03:19:35;100670.06;;;16.02;100.00
73063;BME280;61230;46.328;19.972;2023-05-27T03:22:03;100721.09;;;16.28;100.00
73063;BME280;61230;46.328;19.972;2023-05-27T03:24:32;100714.78;;;16.29;100.00
73063;BME280;61230;46.328;19.972;2023-05-27T03:27:01;100724.25;;;16.32;100.00
73063;BME280;61230;46.328;19.972;2023-05-27T03:29:29;100720.44;;;16.34;100.00
73063;BME280;61230;46.328;19.972;2023-05-27T03:31:58;100728.06;;;16.37;100.00
73063;BME280;61230;46.328;19.972;2023-05-27T03:34:26;100725.72;;;16.42;100.00
73063;BME280;61230;46.328;19.972;2023-05-27T03:36:55;100682.94;;;16.21;100.00
73063;BME280;61230;46.328;19.972;2023-05-27T03:39:23;100679.12;;;16.32;100.00
73063;BME280;61230;46.328;19.972;2023-05-27T03:41:52;100718.87;;;16.56;100.00
73063;BME280;61230;46.328;19.972;2023-05-27T03:44:19;100722.88;;;16.60;100.00
73063;BME280;61230;46.328;19.972;2023-05-27T03:46:47;100714.41;;;16.56;100.00
73063;BME280;61230;46.328;19.972;2023-05-27T03:49:15;100730.97;;;16.66;100.00
73063;BME280;61230;46.328;19.972;2023-05-27T03:51:43;100732.44;;;16.69;100.00
73063;BME280;61230;46.328;19.972;2023-05-27T03:54:12;100726.28;;;16.77;100.00
73063;BME280;61230;46.328;19.972;2023-05-27T03:56:39;100688.00;;;16.55;100.00
73063;BME280;61230;46.328;19.972;2023-05-27T03:59:07;100723.28;;;16.80;100.00
73063;BME280;61230;46.328;19.972;2023-05-27T04:01:35;100741.34;;;16.84;100.00
73063;BME280;61230;46.328;19.972;2023-05-27T04:04:03;100738.84;;;16.91;100.00
73063;BME280;61230;46.328;19.972;2023-05-27T04:06:31;100727.19;;;16.92;100.00
73063;BME280;61230;46.328;19.972;2023-05-27T04:08:59;100735.31;;;16.98;100.00
73063;BME280;61230;46.328;19.972;2023-05-27T04:11:27;100739.28;;;17.02;100.00
73063;BME280;61230;46.328;19.972;2023-05-27T04:13:55;100730.78;;;17.07;100.00
73063;BME280;61230;46.328;19.972;2023-05-27T04:16:23;100731.91;;;17.12;100.00
73063;BME280;61230;46.328;19.972;2023-05-27T04:18:52;100723.56;;;17.15;100.00
73063;BME280;61230;46.328;19.972;2023-05-27T04:21:20;100719.97;;;17.08;100.00
73063;BME280;61230;46.328;19.972;2023-05-27T04:23:49;100732.63;;;17.29;99.63
73063;BME280;61230;46.328;19.972;2023-05-27T04:26:17;100690.34;;;17.11;98.44
73063;BME280;61230;46.328;19.972;2023-05-27T04:28:47;100698.75;;;17.23;98.95
73063;BME280;61230;46.328;19.972;2023-05-27T04:31:15;100742.25;;;17.61;97.63
73063;BME280;61230;46.328;19.972;2023-05-27T04:33:44;100740.16;;;17.71;96.71
73063;BME280;61230;46.328;19.972;2023-05-27T04:36:12;100746.78;;;17.75;96.00
73063;BME280;61230;46.328;19.972;2023-05-27T04:38:46;100705.88;;;17.53;95.92
73063;BME280;61230;46.328;19.972;2023-05-27T04:41:13;100740.03;;;17.87;96.36
73063;BME280;61230;46.328;19.972;2023-05-27T04:43:42;100748.31;;;17.92;95.45
73063;BME280;61230;46.328;19.972;2023-05-27T04:46:10;100739.06;;;18.03;94.73
73063;BME280;61230;46.328;19.972;2023-05-27T04:48:38;100750.19;;;18.06;94.27
73063;BME280;61230;46.328;19.972;2023-05-27T04:51:05;100750.00;;;18.08;93.52
73063;BME280;61230;46.328;19.972;2023-05-27T04:53:35;100748.38;;;18.21;94.74
73063;BME280;61230;46.328;19.972;2023-05-27T04:56:02;100750.94;;;18.29;93.63
73063;BME280;61230;46.328;19.972;2023-05-27T04:58:30;100754.53;;;18.36;92.52
73063;BME280;61230;46.328;19.972;2023-05-27T05:01:00;100756.09;;;18.46;93.08
73063;BME280;61230;46.328;19.972;2023-05-27T05:03:28;100750.75;;;18.31;91.68
73063;BME280;61230;46.328;19.972;2023-05-27T05:06:19;100708.88;;;18.10;91.72
73063;BME280;61230;46.328;19.972;2023-05-27T05:08:49;100751.41;;;18.33;91.67
73063;BME280;61230;46.328;19.972;2023-05-27T05:11:17;100754.72;;;18.35;91.77
73063;BME280;61230;46.328;19.972;2023-05-27T05:13:45;100745.44;;;18.46;92.37
73063;BME280;61230;46.328;19.972;2023-05-27T05:16:13;100748.00;;;18.39;91.48
73063;BME280;61230;46.328;19.972;2023-05-27T05:18:41;100718.50;;;18.11;90.48
73063;BME280;61230;46.328;19.972;2023-05-27T05:21:10;100752.69;;;18.37;91.42
73063;BME280;61230;46.328;19.972;2023-05-27T05:23:38;100752.78;;;18.44;90.35
73063;BME280;61230;46.328;19.972;2023-05-27T05:26:07;100760.94;;;18.50;90.46
73063;BME280;61230;46.328;19.972;2023-05-27T05:28:36;100749.59;;;18.77;90.70
73063;BME280;61230;46.328;19.972;2023-05-27T05:31:05;100754.72;;;18.79;89.05
73063;BME280;61230;46.328;19.972;2023-05-27T05:33:33;100759.06;;;18.80;89.76
73063;BME280;61230;46.328;19.972;2023-05-27T05:36:02;100756.03;;;18.68;89.10
73063;BME280;61230;46.328;19.972;2023-05-27T05:38:30;100758.91;;;18.67;89.00
73063;BME280;61230;46.328;19.972;2023-05-27T05:40:59;100765.87;;;18.68;90.95
73063;BME280;61230;46.328;19.972;2023-05-27T05:43:27;100764.31;;;18.59;89.68
73063;BME280;61230;46.328;19.972;2023-05-27T05:45:55;100775.16;;;18.57;91.15
73063;BME280;61230;46.328;19.972;2023-05-27T05:48:22;100764.50;;;18.57;90.23
73063;BME280;61230;46.328;19.972;2023-05-27T05:50:50;100762.47;;;18.59;89.49
73063;BME280;61230;46.328;19.972;2023-05-27T05:53:19;100766.78;;;18.60;88.88
73063;BME280;61230;46.328;19.972;2023-05-27T05:55:47;100761.25;;;18.62;89.85
73063;BME280;61230;46.328;19.972;2023-05-27T05:58:15;100760.25;;;18.63;89.89
73063;BME280;61230;46.328;19.972;2023-05-27T06:00:43;100770.56;;;18.66;90.18
73063;BME280;61230;46.328;19.972;2023-05-27T06:03:11;100768.00;;;18.72;89.86
73063;BME280;61230;46.328;19.972;2023-05-27T06:05:40;100774.06;;;18.81;89.77
73063;BME280;61230;46.328;19.972;2023-05-27T06:08:08;100758.31;;;18.86;89.37
73063;BME280;61230;46.328;19.972;2023-05-27T06:10:37;100775.22;;;18.93;88.78
73063;BME280;61230;46.328;19.972;2023-05-27T06:13:05;100780.09;;;19.04;88.50
73063;BME280;61230;46.328;19.972;2023-05-27T06:15:33;100782.00;;;19.10;87.84
73063;BME280;61230;46.328;19.972;2023-05-27T06:18:01;100791.75;;;19.18;86.91
73063;BME280;61230;46.328;19.972;2023-05-27T06:20:29;100797.00;;;19.11;87.23
73063;BME280;61230;46.328;19.972;2023-05-27T06:22:57;100797.19;;;19.10;86.74
73063;BME280;61230;46.328;19.972;2023-05-27T06:25:27;100802.81;;;19.15;87.04
73063;BME280;61230;46.328;19.972;2023-05-27T06:27:54;100799.28;;;19.29;87.23
73063;BME280;61230;46.328;19.972;2023-05-27T06:30:22;100797.06;;;19.32;87.87
73063;BME280;61230;46.328;19.972;2023-05-27T06:32:50;100797.22;;;19.31;87.32
73063;BME280;61230;46.328;19.972;2023-05-27T06:35:18;100798.81;;;19.40;86.25
73063;BME280;61230;46.328;19.972;2023-05-27T06:37:46;100797.50;;;19.36;86.04
73063;BME280;61230;46.328;19.972;2023-05-27T06:40:15;100810.66;;;19.37;86.44
73063;BME280;61230;46.328;19.972;2023-05-27T06:42:43;100799.53;;;19.48;86.11
73063;BME280;61230;46.328;19.972;2023-05-27T06:45:11;100801.22;;;19.56;86.08
73063;BME280;61230;46.328;19.972;2023-05-27T06:47:40;100793.75;;;19.87;85.62
73063;BME280;61230;46.328;19.972;2023-05-27T06:50:08;100800.09;;;20.07;84.79
73063;BME280;61230;46.328;19.972;2023-05-27T06:52:38;100803.00;;;20.13;84.44
73063;BME280;61230;46.328;19.972;2023-05-27T06:55:08;100812.87;;;19.91;83.36
73063;BME280;61230;46.328;19.972;2023-05-27T06:57:38;100814.62;;;19.77;84.25
73063;BME280;61230;46.328;19.972;2023-05-27T07:00:07;100815.31;;;19.86;84.59
73063;BME280;61230;46.328;19.972;2023-05-27T07:02:38;100811.25;;;19.69;84.95
73063;BME280;61230;46.328;19.972;2023-05-27T07:05:06;100819.75;;;19.79;84.02
73063;BME280;61230;46.328;19.972;2023-05-27T07:07:33;100817.91;;;19.79;84.82
73063;BME280;61230;46.328;19.972;2023-05-27T07:10:01;100816.87;;;20.01;84.96
73063;BME280;61230;46.328;19.972;2023-05-27T07:12:29;100813.75;;;19.98;83.17
73063;BME280;61230;46.328;19.972;2023-05-27T07:14:57;100821.53;;;20.14;83.57
73063;BME280;61230;46.328;19.972;2023-05-27T07:17:25;100824.34;;;20.06;81.97
73063;BME280;61230;46.328;19.972;2023-05-27T07:19:52;100822.34;;;20.15;82.98
73063;BME280;61230;46.328;19.972;2023-05-27T07:22:20;100825.38;;;20.26;81.78
73063;BME280;61230;46.328;19.972;2023-05-27T07:24:49;100814.31;;;20.36;81.88
73063;BME280;61230;46.328;19.972;2023-05-27T07:27:17;100816.87;;;20.23;80.73
73063;BME280;61230;46.328;19.972;2023-05-27T07:29:45;100816.59;;;20.39;81.09
73063;BME280;61230;46.328;19.972;2023-05-27T07:32:14;100809.78;;;20.64;81.20
73063;BME280;61230;46.328;19.972;2023-05-27T07:34:41;100809.09;;;20.49;81.81
73063;BME280;61230;46.328;19.972;2023-05-27T07:37:09;100805.88;;;20.67;79.73
73063;BME280;61230;46.328;19.972;2023-05-27T07:39:37;100799.69;;;20.59;81.51
73063;BME280;61230;46.328;19.972;2023-05-27T07:42:04;100809.00;;;20.70;80.54
73063;BME280;61230;46.328;19.972;2023-05-27T07:44:33;100765.72;;;20.53;80.57
73063;BME280;61230;46.328;19.972;2023-05-27T07:47:00;100808.06;;;20.84;80.83
73063;BME280;61230;46.328;19.972;2023-05-27T07:49:28;100811.84;;;20.62;79.77
73063;BME280;61230;46.328;19.972;2023-05-27T07:51:57;100803.59;;;20.57;79.53
73063;BME280;61230;46.328;19.972;2023-05-27T07:54:25;100799.97;;;20.71;79.90
73063;BME280;61230;46.328;19.972;2023-05-27T07:56:54;100806.31;;;20.70;79.72
73063;BME280;61230;46.328;19.972;2023-05-27T07:59:22;100807.59;;;20.74;79.69
73063;BME280;61230;46.328;19.972;2023-05-27T08:01:50;100803.66;;;20.70;80.04
73063;BME280;61230;46.328;19.972;2023-05-27T08:04:18;100800.53;;;20.60;80.85
73063;BME280;61230;46.328;19.972;2023-05-27T08:06:52;100814.19;;;20.78;80.10
73063;BME280;61230;46.328;19.972;2023-05-27T08:09:20;100807.22;;;20.84;79.59
73063;BME280;61230;46.328;19.972;2023-05-27T08:11:50;100808.66;;;20.86;78.41
73063;BME280;61230;46.328;19.972;2023-05-27T08:14:18;100819.06;;;21.02;79.61
73063;BME280;61230;46.328;19.972;2023-05-27T08:16:48;100775.00;;;20.98;79.23
73063;BME280;61230;46.328;19.972;2023-05-27T08:19:16;100817.41;;;21.01;77.48
73063;BME280;61230;46.328;19.972;2023-05-27T08:21:45;100816.56;;;21.01;78.62
73063;BME280;61230;46.328;19.972;2023-05-27T08:24:15;100810.09;;;21.16;78.62
73063;BME280;61230;46.328;19.972;2023-05-27T08:26:43;100815.22;;;21.11;77.18
73063;BME280;61230;46.328;19.972;2023-05-27T08:29:11;100826.13;;;21.10;78.13
73063;BME280;61230;46.328;19.972;2023-05-27T08:31:39;100818.31;;;21.15;78.09
73063;BME280;61230;46.328;19.972;2023-05-27T08:34:07;100815.22;;;21.11;77.57
73063;BME280;61230;46.328;19.972;2023-05-27T08:36:35;100816.53;;;21.35;77.86
73063;BME280;61230;46.328;19.972;2023-05-27T08:39:03;100818.66;;;21.05;76.85
73063;BME280;61230;46.328;19.972;2023-05-27T08:41:32;100813.66;;;21.30;77.39
73063;BME280;61230;46.328;19.972;2023-05-27T08:44:01;100819.69;;;21.52;76.42
73063;BME280;61230;46.328;19.972;2023-05-27T08:46:48;100824.63;;;21.55;77.45
73063;BME280;61230;46.328;19.972;2023-05-27T08:49:17;100827.16;;;21.69;76.13
73063;BME280;61230;46.328;19.972;2023-05-27T08:51:45;100817.59;;;21.34;74.83
73063;BME280;61230;46.328;19.972;2023-05-27T08:54:14;100815.44;;;21.16;74.79
73063;BME280;61230;46.328;19.972;2023-05-27T08:56:43;100823.34;;;21.38;76.14
73063;BME280;61230;46.328;19.972;2023-05-27T08:59:12;100809.19;;;21.50;74.34
73063;BME280;61230;46.328;19.972;2023-05-27T09:01:41;100813.72;;;21.56;72.35
73063;BME280;61230;46.328;19.972;2023-05-27T09:04:10;100813.56;;;21.84;73.86
73063;BME280;61230;46.328;19.972;2023-05-27T09:06:38;100820.72;;;21.57;74.72
73063;BME280;61230;46.328;19.972;2023-05-27T09:09:07;100816.91;;;21.93;74.01
73063;BME280;61230;46.328;19.972;2023-05-27T09:11:39;100814.31;;;21.52;73.83
73063;BME280;61230;46.328;19.972;2023-05-27T09:14:07;100820.94;;;21.69;73.34
73063;BME280;61230;46.328;19.972;2023-05-27T09:16:41;100821.19;;;21.81;73.01
73063;BME280;61230;46.328;19.972;2023-05-27T09:19:17;100819.38;;;21.88;72.69
73063;BME280;61230;46.328;19.972;2023-05-27T09:21:45;100807.72;;;21.54;73.13
73063;BME280;61230;46.328;19.972;2023-05-27T09:24:13;100823.44;;;21.64;72.75
73063;BME280;61230;46.328;19.972;2023-05-27T09:26:41;100815.38;;;21.64;71.60
73063;BME280;61230;46.328;19.972;2023-05-27T09:29:09;100815.59;;;21.62;71.59
73063;BME280;61230;46.328;19.972;2023-05-27T09:31:41;100811.88;;;21.63;71.26
73063;BME280;61230;46.328;19.972;2023-05-27T09:34:13;100808.16;;;21.58;71.21
73063;BME280;61230;46.328;19.972;2023-05-27T09:36:49;100810.03;;;21.77;71.95
73063;BME280;61230;46.328;19.972;2023-05-27T09:39:18;100810.53;;;21.87;72.19
73063;BME280;61230;46.328;19.972;2023-05-27T09:41:50;100804.34;;;22.39;71.22
73063;BME280;61230;46.328;19.972;2023-05-27T09:44:20;100808.25;;;21.91;70.98
73063;BME280;61230;46.328;19.972;2023-05-27T09:46:50;100809.50;;;22.27;70.51
73063;BME280;61230;46.328;19.972;2023-05-27T09:49:21;100803.25;;;21.81;71.00
73063;BME280;61230;46.328;19.972;2023-05-27T09:51:51;100812.34;;;21.87;71.50
73063;BME280;61230;46.328;19.972;2023-05-27T09:54:19;100779.50;;;21.52;71.72
73063;BME280;61230;46.328;19.972;2023-05-27T09:56:49;100810.09;;;22.03;71.69
73063;BME280;61230;46.328;19.972;2023-05-27T09:59:17;100813.41;;;22.05;70.82
73063;BME280;61230;46.328;19.972;2023-05-27T10:01:45;100811.91;;;21.83;70.37
73063;BME280;61230;46.328;19.972;2023-05-27T10:04:15;100807.63;;;22.08;69.99
73063;BME280;61230;46.328;19.972;2023-05-27T10:06:46;100806.00;;;21.88;70.03
73063;BME280;61230;46.328;19.972;2023-05-27T10:09:14;100802.06;;;21.90;69.16
73063;BME280;61230;46.328;19.972;2023-05-27T10:11:43;100764.06;;;21.60;68.67
73063;BME280;61230;46.328;19.972;2023-05-27T10:14:12;100794.25;;;22.21;68.48
73063;BME280;61230;46.328;19.972;2023-05-27T10:16:50;100792.38;;;22.15;67.05
73063;BME280;61230;46.328;19.972;2023-05-27T10:19:19;100750.53;;;21.95;67.09
73063;BME280;61230;46.328;19.972;2023-05-27T10:21:47;100795.84;;;22.49;67.83
73063;BME280;61230;46.328;19.972;2023-05-27T10:24:15;100793.22;;;22.16;68.85
73063;BME280;61230;46.328;19.972;2023-05-27T10:26:44;100793.81;;;22.11;69.08
73063;BME280;61230;46.328;19.972;2023-05-27T10:29:14;100756.88;;;21.74;69.50
73063;BME280;61230;46.328;19.972;2023-05-27T10:31:48;100792.97;;;21.85;70.20
73063;BME280;61230;46.328;19.972;2023-05-27T10:34:19;100795.69;;;21.98;70.08
73063;BME280;61230;46.328;19.972;2023-05-27T10:36:58;100790.72;;;21.95;70.16
73063;BME280;61230;46.328;19.972;2023-05-27T10:39:26;100785.38;;;22.27;71.61
73063;BME280;61230;46.328;19.972;2023-05-27T10:41:57;100791.72;;;22.40;70.33
73063;BME280;61230;46.328;19.972;2023-05-27T10:47:02;100768.87;;;22.30;69.26
73063;BME280;61230;46.328;19.972;2023-05-27T10:49:34;100736.72;;;21.91;68.14
73063;BME280;61230;46.328;19.972;2023-05-27T10:54:42;100769.53;;;22.97;67.21
73063;BME280;61230;46.328;19.972;2023-05-27T10:57:10;100772.34;;;23.15;66.36
73063;BME280;61230;46.328;19.972;2023-05-27T10:59:44;100765.06;;;23.28;64.90
73063;BME280;61230;46.328;19.972;2023-05-27T11:02:15;100760.91;;;23.95;64.27
73063;BME280;61230;46.328;19.972;2023-05-27T11:04:43;100754.00;;;24.30;63.19
73063;BME280;61230;46.328;19.972;2023-05-27T11:07:11;100757.56;;;24.85;62.58
73063;BME280;61230;46.328;19.972;2023-05-27T11:09:43;100761.09;;;24.86;60.48
73063;BME280;61230;46.328;19.972;2023-05-27T11:12:17;100747.09;;;24.16;60.11
73063;BME280;61230;46.328;19.972;2023-05-27T11:14:52;100744.91;;;24.07;62.09
73063;BME280;61230;46.328;19.972;2023-05-27T11:17:20;100736.00;;;24.31;63.30
73063;BME280;61230;46.328;19.972;2023-05-27T11:19:49;100739.50;;;23.82;60.84
73063;BME280;61230;46.328;19.972;2023-05-27T11:22:18;100737.75;;;23.69;60.18
73063;BME280;61230;46.328;19.972;2023-05-27T11:24:57;100736.94;;;23.69;59.05
73063;BME280;61230;46.328;19.972;2023-05-27T11:27:32;100697.59;;;23.50;60.06
73063;BME280;61230;46.328;19.972;2023-05-27T11:30:00;100731.50;;;24.00;60.26
73063;BME280;61230;46.328;19.972;2023-05-27T11:32:33;100722.38;;;24.01;60.44
73063;BME280;61230;46.328;19.972;2023-05-27T11:35:00;100719.75;;;24.19;60.58
73063;BME280;61230;46.328;19.972;2023-05-27T11:37:32;100727.09;;;24.30;60.44
73063;BME280;61230;46.328;19.972;2023-05-27T11:40:01;100691.81;;;24.38;61.27
73063;BME280;61230;46.328;19.972;2023-05-27T11:42:29;100685.03;;;24.18;61.23
73063;BME280;61230;46.328;19.972;2023-05-27T11:44:57;100716.44;;;25.38;59.09
73063;BME280;61230;46.328;19.972;2023-05-27T11:47:27;100723.09;;;24.94;60.11
73063;BME280;61230;46.328;19.972;2023-05-27T11:49:55;100718.91;;;24.80;60.15
73063;BME280;61230;46.328;19.972;2023-05-27T11:52:24;100716.09;;;25.46;59.67
73063;BME280;61230;46.328;19.972;2023-05-27T11:54:53;100719.09;;;24.96;58.50
73063;BME280;61230;46.328;19.972;2023-05-27T11:57:24;100715.44;;;24.73;58.99
73063;BME280;61230;46.328;19.972;2023-05-27T11:59:52;100687.03;;;24.77;59.47
73063;BME280;61230;46.328;19.972;2023-05-27T12:02:20;100711.25;;;24.77;58.75
73063;BME280;61230;46.328;19.972;2023-05-27T12:04:49;100707.81;;;24.88;58.64
73063;BME280;61230;46.328;19.972;2023-05-27T12:07:17;100666.66;;;24.99;58.28
73063;BME280;61230;46.328;19.972;2023-05-27T12:09:48;100704.34;;;25.17;57.14
73063;BME280;61230;46.328;19.972;2023-05-27T12:12:19;100698.44;;;25.08;56.59
73063;BME280;61230;46.328;19.972;2023-05-27T12:14:47;100700.00;;;25.57;56.96
73063;BME280;61230;46.328;19.972;2023-05-27T12:17:15;100692.06;;;25.74;56.51
73063;BME280;61230;46.328;19.972;2023-05-27T12:19:43;100683.66;;;26.05;55.05
73063;BME280;61230;46.328;19.972;2023-05-27T12:22:13;100681.16;;;26.39;55.92
73063;BME280;61230;46.328;19.972;2023-05-27T12:24:40;100674.13;;;26.14;55.59
73063;BME280;61230;46.328;19.972;2023-05-27T12:27:08;100674.25;;;26.08;52.56
73063;BME280;61230;46.328;19.972;2023-05-27T12:29:35;100667.56;;;25.87;51.95
73063;BME280;61230;46.328;19.972;2023-05-27T12:32:04;100631.00;;;25.68;52.26
73063;BME280;61230;46.328;19.972;2023-05-27T12:34:32;100665.09;;;25.97;52.77
73063;BME280;61230;46.328;19.972;2023-05-27T12:36:59;100658.53;;;26.28;53.34
73063;BME280;61230;46.328;19.972;2023-05-27T12:39:27;100654.63;;;26.47;52.64
73063;BME280;61230;46.328;19.972;2023-05-27T12:41:55;100656.53;;;25.89;51.07
73063;BME280;61230;46.328;19.972;2023-05-27T12:44:22;100621.56;;;25.36;52.40
73063;BME280;61230;46.328;19.972;2023-05-27T12:46:50;100660.16;;;25.48;51.03
73063;BME280;61230;46.328;19.972;2023-05-27T12:49:18;100645.50;;;25.55;51.44